createdAt,value
2018-09-10T00:00:01.232Z,5.20
2018-09-10T00:00:36.567Z,4.90
2018-09-10T00:01:11.984Z,4.50
2018-09-10T00:01:47.355Z,4.90
2018-09-10T00:02:22.968Z,4.80
2018-09-10T00:02:58.437Z,4.50
2018-09-10T00:03:34.139Z,4.90
2018-09-10T00:04:09.271Z,4.90
2018-09-10T00:04:44.285Z,4.80
2018-09-10T00:05:19.808Z,4.90
2018-09-10T00:05:55.108Z,4.50
2018-09-10T00:06:30.763Z,4.40
2018-09-10T00:07:06.203Z,4.50
2018-09-10T00:07:41.952Z,5.00
2018-09-10T00:08:17.250Z,5.40
2018-09-10T00:08:52.700Z,5.00
2018-09-10T00:09:28.097Z,4.40
2018-09-10T00:10:03.406Z,4.20
2018-09-10T00:10:38.593Z,4.50
2018-09-10T00:11:14.041Z,4.80
2018-09-10T00:11:49.227Z,4.60
2018-09-10T00:12:24.756Z,4.40
2018-09-10T00:12:59.965Z,4.60
2018-09-10T00:13:35.284Z,4.30
2018-09-10T00:14:10.871Z,4.20
2018-09-10T00:14:46.088Z,4.30
2018-09-10T00:15:21.488Z,4.60
2018-09-10T00:15:57.147Z,4.50
2018-09-10T00:16:32.561Z,4.40
2018-09-10T00:17:07.814Z,4.40
2018-09-10T00:17:43.267Z,4.60
2018-09-10T00:18:18.606Z,4.10
2018-09-10T00:18:54.122Z,4.10
2018-09-10T00:19:29.568Z,4.40
2018-09-10T00:20:05.015Z,4.30
2018-09-10T00:20:40.365Z,4.20
2018-09-10T00:21:15.457Z,4.80
2018-09-10T00:21:50.801Z,4.90
2018-09-10T00:22:25.896Z,4.30
2018-09-10T00:23:01.585Z,4.00
2018-09-10T00:23:36.978Z,4.50
2018-09-10T00:24:12.299Z,4.80
2018-09-10T00:24:47.715Z,4.00
2018-09-10T00:25:22.758Z,4.50
2018-09-10T00:25:58.083Z,4.50
2018-09-10T00:26:33.695Z,4.30
2018-09-10T00:27:09.051Z,4.20
2018-09-10T00:27:44.495Z,4.30
2018-09-10T00:28:19.635Z,4.20
2018-09-10T00:28:54.818Z,4.30
2018-09-10T00:29:30.319Z,4.80
2018-09-10T00:30:05.735Z,4.70
2018-09-10T00:30:43.372Z,4.30
2018-09-10T00:31:18.482Z,3.70
2018-09-10T00:31:53.883Z,4.20
2018-09-10T00:32:29.745Z,4.90
2018-09-10T00:33:05.164Z,4.90
2018-09-10T00:33:40.306Z,4.40
2018-09-10T00:34:15.796Z,4.30
2018-09-10T00:34:51.119Z,4.10
2018-09-10T00:35:26.585Z,4.20
2018-09-10T00:36:01.806Z,4.20
2018-09-10T00:36:37.124Z,4.10
2018-09-10T00:37:12.462Z,4.10
2018-09-10T00:37:47.669Z,4.40
2018-09-10T00:38:22.928Z,4.20
2018-09-10T00:38:58.161Z,4.00
2018-09-10T00:39:33.322Z,4.30
2018-09-10T00:40:08.703Z,3.70
2018-09-10T00:40:44.135Z,4.20
2018-09-10T00:41:19.761Z,4.60
2018-09-10T00:41:55.206Z,4.30
2018-09-10T00:42:30.548Z,3.80
2018-09-10T00:43:05.856Z,3.90
2018-09-10T00:43:41.461Z,4.10
2018-09-10T00:44:17.119Z,4.50
2018-09-10T00:44:52.637Z,4.30
2018-09-10T00:45:28.277Z,4.20
2018-09-10T00:46:03.691Z,4.70
2018-09-10T00:46:38.825Z,4.50
2018-09-10T00:47:14.310Z,4.40
2018-09-10T00:47:49.729Z,4.70
2018-09-10T00:48:25.132Z,4.90
2018-09-10T00:49:00.738Z,4.70
2018-09-10T00:49:35.763Z,4.50
2018-09-10T00:50:11.180Z,4.50
2018-09-10T00:50:46.384Z,4.30
2018-09-10T00:51:21.611Z,4.00
2018-09-10T00:51:56.807Z,4.50
2018-09-10T00:52:32.340Z,4.40
2018-09-10T00:53:07.525Z,4.40
2018-09-10T00:53:43.053Z,3.90
2018-09-10T00:54:18.053Z,3.80
2018-09-10T00:54:53.409Z,3.50
2018-09-10T00:55:28.699Z,3.70
2018-09-10T00:56:04.124Z,4.50
2018-09-10T00:56:39.446Z,4.20
2018-09-10T00:57:14.980Z,4.30
2018-09-10T00:57:50.177Z,4.40
2018-09-10T00:58:25.487Z,4.20
2018-09-10T00:59:00.674Z,4.40
2018-09-10T00:59:35.887Z,4.20
2018-09-10T01:00:11.430Z,4.00
2018-09-10T01:00:46.980Z,3.90
2018-09-10T01:01:22.459Z,3.90
2018-09-10T01:01:57.795Z,3.80
2018-09-10T01:02:33.207Z,3.80
2018-09-10T01:03:08.843Z,3.70
2018-09-10T01:03:44.223Z,3.60
2018-09-10T01:04:19.685Z,3.90
2018-09-10T01:04:54.973Z,4.40
2018-09-10T01:05:30.331Z,4.30
2018-09-10T01:06:05.654Z,4.30
2018-09-10T01:06:40.971Z,4.40
2018-09-10T01:07:16.279Z,4.40
2018-09-10T01:07:51.695Z,4.00
2018-09-10T01:08:26.982Z,4.10
2018-09-10T01:09:02.425Z,4.20
2018-09-10T01:09:38.032Z,3.90
2018-09-10T01:10:13.588Z,3.70
2018-09-10T01:10:49.021Z,3.80
2018-09-10T01:11:24.749Z,3.80
2018-09-10T01:11:59.875Z,4.30
2018-09-10T01:12:35.231Z,3.70
2018-09-10T01:13:10.963Z,3.60
2018-09-10T01:13:46.378Z,3.90
2018-09-10T01:14:21.580Z,4.40
2018-09-10T01:14:56.916Z,3.70
2018-09-10T01:15:32.130Z,3.50
2018-09-10T01:16:07.683Z,3.70
2018-09-10T01:16:42.887Z,4.40
2018-09-10T01:17:18.229Z,4.10
2018-09-10T01:17:53.719Z,3.90
2018-09-10T01:18:29.537Z,4.30
2018-09-10T01:19:05.011Z,3.90
2018-09-10T01:19:40.395Z,3.90
2018-09-10T01:20:15.759Z,3.80
2018-09-10T01:20:50.990Z,3.70
2018-09-10T01:21:26.430Z,4.10
2018-09-10T01:22:01.982Z,4.20
2018-09-10T01:22:37.284Z,4.00
2018-09-10T01:23:12.808Z,3.80
2018-09-10T01:23:48.308Z,3.80
2018-09-10T01:24:23.835Z,3.60
2018-09-10T01:24:59.111Z,3.50
2018-09-10T01:25:34.423Z,3.80
2018-09-10T01:26:09.728Z,4.50
2018-09-10T01:26:45.286Z,4.30
2018-09-10T01:27:20.593Z,3.80
2018-09-10T01:27:55.942Z,3.90
2018-09-10T01:28:31.134Z,4.20
2018-09-10T01:29:06.563Z,4.20
2018-09-10T01:29:41.974Z,3.70
2018-09-10T01:30:17.395Z,3.60
2018-09-10T01:30:52.620Z,3.90
2018-09-10T01:31:28.034Z,4.10
2018-09-10T01:32:03.363Z,4.10
2018-09-10T01:32:38.466Z,4.10
2018-09-10T01:33:13.763Z,4.00
2018-09-10T01:33:49.271Z,3.60
2018-09-10T01:34:24.923Z,3.60
2018-09-10T01:35:00.449Z,3.60
2018-09-10T01:35:35.743Z,3.90
2018-09-10T01:36:11.152Z,4.40
2018-09-10T01:36:46.238Z,4.50
2018-09-10T01:37:21.589Z,3.90
2018-09-10T01:37:56.682Z,4.00
2018-09-10T01:38:32.113Z,4.40
2018-09-10T01:39:07.312Z,3.70
2018-09-10T01:39:42.769Z,3.70
2018-09-10T01:40:18.101Z,3.90
2018-09-10T01:40:53.442Z,3.90
2018-09-10T01:41:28.869Z,3.60
2018-09-10T01:42:04.396Z,3.70
2018-09-10T01:42:39.736Z,3.80
2018-09-10T01:43:14.969Z,4.10
2018-09-10T01:43:50.469Z,4.40
2018-09-10T01:44:25.617Z,4.40
2018-09-10T01:45:00.913Z,3.90
2018-09-10T01:45:35.936Z,4.00
2018-09-10T01:46:11.223Z,4.30
2018-09-10T01:46:46.493Z,4.60
2018-09-10T01:47:21.592Z,4.00
2018-09-10T01:47:57.064Z,3.90
2018-09-10T01:48:32.459Z,3.80
2018-09-10T01:49:07.965Z,3.90
2018-09-10T01:49:43.267Z,4.40
2018-09-10T01:50:18.803Z,4.50
2018-09-10T01:50:54.002Z,4.30
2018-09-10T01:51:29.623Z,4.00
2018-09-10T01:52:05.014Z,4.10
2018-09-10T01:52:40.212Z,3.80
2018-09-10T01:53:15.737Z,3.90
2018-09-10T01:53:51.251Z,3.90
2018-09-10T01:54:26.749Z,4.50
2018-09-10T01:55:01.978Z,4.40
2018-09-10T01:55:37.274Z,4.40
2018-09-10T01:56:12.709Z,4.10
2018-09-10T01:56:48.019Z,4.00
2018-09-10T01:57:23.222Z,4.20
2018-09-10T01:57:58.536Z,3.90
2018-09-10T01:58:34.101Z,4.00
2018-09-10T01:59:09.290Z,4.70
2018-09-10T01:59:44.920Z,4.70
2018-09-10T02:00:20.511Z,4.40
2018-09-10T02:00:55.721Z,3.90
2018-09-10T02:01:30.855Z,3.90
2018-09-10T02:02:06.184Z,4.00
2018-09-10T02:02:41.609Z,4.10
2018-09-10T02:03:16.706Z,3.80
2018-09-10T02:03:52.029Z,4.00
2018-09-10T02:04:27.394Z,4.30
2018-09-10T02:05:03.000Z,4.30
2018-09-10T02:05:38.051Z,4.20
2018-09-10T02:06:13.342Z,4.30
2018-09-10T02:06:48.774Z,3.60
2018-09-10T02:07:24.068Z,3.90
2018-09-10T02:07:59.455Z,4.30
2018-09-10T02:08:35.212Z,4.90
2018-09-10T02:09:10.577Z,4.30
2018-09-10T02:09:46.275Z,4.20
2018-09-10T02:10:21.701Z,3.90
2018-09-10T02:10:56.821Z,4.30
2018-09-10T02:11:32.162Z,4.80
2018-09-10T02:12:07.570Z,4.30
2018-09-10T02:12:42.904Z,4.40
2018-09-10T02:13:19.267Z,4.10
2018-09-10T02:13:55.452Z,3.90
2018-09-10T02:14:31.304Z,4.10
2018-09-10T02:15:08.324Z,4.30
2018-09-10T02:15:44.111Z,3.90
2018-09-10T02:16:19.935Z,3.90
2018-09-10T02:16:55.424Z,4.00
2018-09-10T02:17:31.759Z,3.90
2018-09-10T02:18:07.646Z,4.00
2018-09-10T02:18:42.871Z,3.90
2018-09-10T02:19:19.198Z,3.90
2018-09-10T02:19:55.358Z,4.30
2018-09-10T02:20:30.774Z,4.10
2018-09-10T02:21:06.570Z,3.90
2018-09-10T02:21:42.097Z,3.70
2018-09-10T02:22:18.764Z,4.10
2018-09-10T02:22:54.033Z,4.10
2018-09-10T02:23:29.744Z,3.50
2018-09-10T02:24:04.999Z,3.50
2018-09-10T02:24:40.328Z,3.40
2018-09-10T02:25:15.562Z,3.70
2018-09-10T02:25:50.784Z,4.00
2018-09-10T02:26:26.271Z,3.70
2018-09-10T02:27:01.485Z,3.40
2018-09-10T02:27:36.790Z,3.00
2018-09-10T02:28:12.499Z,3.30
2018-09-10T02:28:47.811Z,3.40
2018-09-10T02:29:23.069Z,3.90
2018-09-10T02:29:58.306Z,4.00
2018-09-10T02:30:33.672Z,3.90
2018-09-10T02:31:09.011Z,4.00
2018-09-10T02:31:44.349Z,4.10
2018-09-10T02:32:19.653Z,4.00
2018-09-10T02:32:55.264Z,4.20
2018-09-10T02:33:30.577Z,4.10
2018-09-10T02:34:06.301Z,4.10
2018-09-10T02:34:41.614Z,3.80
2018-09-10T02:35:17.051Z,3.70
2018-09-10T02:35:52.171Z,3.90
2018-09-10T02:36:27.319Z,3.20
2018-09-10T02:37:02.446Z,3.10
2018-09-10T02:37:37.798Z,3.80
2018-09-10T02:38:13.395Z,3.50
2018-09-10T02:38:49.144Z,3.20
2018-09-10T02:39:24.756Z,3.40
2018-09-10T02:40:00.077Z,3.50
2018-09-10T02:40:35.183Z,3.70
2018-09-10T02:41:10.731Z,3.80
2018-09-10T02:41:46.329Z,3.70
2018-09-10T02:42:21.584Z,3.90
2018-09-10T02:42:57.090Z,3.80
2018-09-10T02:43:32.613Z,3.50
2018-09-10T02:44:07.631Z,3.50
2018-09-10T02:44:42.772Z,3.90
2018-09-10T02:45:18.081Z,4.10
2018-09-10T02:45:53.391Z,4.00
2018-09-10T02:46:28.444Z,3.80
2018-09-10T02:47:03.861Z,4.10
2018-09-10T02:47:39.486Z,4.10
2018-09-10T02:48:15.115Z,4.30
2018-09-10T02:48:50.126Z,3.90
2018-09-10T02:49:25.581Z,3.30
2018-09-10T02:50:00.887Z,3.50
2018-09-10T02:50:36.234Z,3.70
2018-09-10T02:51:11.731Z,3.50
2018-09-10T02:51:47.270Z,3.50
2018-09-10T02:52:22.489Z,3.90
2018-09-10T02:52:58.050Z,3.70
2018-09-10T02:53:33.256Z,3.60
2018-09-10T02:54:08.673Z,4.00
2018-09-10T02:54:43.963Z,3.70
2018-09-10T02:55:19.256Z,3.60
2018-09-10T02:55:54.479Z,3.90
2018-09-10T02:56:30.143Z,4.10
2018-09-10T02:57:05.558Z,4.10
2018-09-10T02:57:41.108Z,3.70
2018-09-10T02:58:16.383Z,4.10
2018-09-10T02:58:51.621Z,4.00
2018-09-10T02:59:26.803Z,4.10
2018-09-10T03:00:01.973Z,3.70
2018-09-10T03:00:37.324Z,4.00
2018-09-10T03:01:12.637Z,4.00
2018-09-10T03:01:48.065Z,3.80
2018-09-10T03:02:23.627Z,3.70
2018-09-10T03:02:58.652Z,3.70
2018-09-10T03:03:33.965Z,3.90
2018-09-10T03:04:09.266Z,4.20
2018-09-10T03:04:44.885Z,4.30
2018-09-10T03:05:19.993Z,4.30
2018-09-10T03:05:55.560Z,4.20
2018-09-10T03:06:30.640Z,3.90
2018-09-10T03:07:06.265Z,4.10
2018-09-10T03:07:41.392Z,4.00
2018-09-10T03:08:16.826Z,4.10
2018-09-10T03:08:52.525Z,4.50
2018-09-10T03:09:27.861Z,4.50
2018-09-10T03:10:03.075Z,4.40
2018-09-10T03:10:38.804Z,4.20
2018-09-10T03:11:14.109Z,4.50
2018-09-10T03:11:49.415Z,4.70
2018-09-10T03:12:25.670Z,4.40
2018-09-10T03:13:01.245Z,4.10
2018-09-10T03:13:36.574Z,4.20
2018-09-10T03:14:12.113Z,3.90
2018-09-10T03:14:47.401Z,4.10
2018-09-10T03:15:22.811Z,3.70
2018-09-10T03:15:58.042Z,3.90
2018-09-10T03:16:33.248Z,4.20
2018-09-10T03:17:08.658Z,4.40
2018-09-10T03:17:44.406Z,4.50
2018-09-10T03:18:19.843Z,4.20
2018-09-10T03:18:55.176Z,3.80
2018-09-10T03:19:30.475Z,4.30
2018-09-10T03:20:05.912Z,4.40
2018-09-10T03:20:41.215Z,4.30
2018-09-10T03:21:16.953Z,4.40
2018-09-10T03:21:52.347Z,4.30
2018-09-10T03:22:27.914Z,4.40
2018-09-10T03:23:03.314Z,4.90
2018-09-10T03:23:38.540Z,4.20
2018-09-10T03:24:13.705Z,3.90
2018-09-10T03:24:49.182Z,4.20
2018-09-10T03:25:24.368Z,4.60
2018-09-10T03:25:59.484Z,4.00
2018-09-10T03:26:34.707Z,4.20
2018-09-10T03:27:10.017Z,3.70
2018-09-10T03:27:45.542Z,3.80
2018-09-10T03:28:20.863Z,4.10
2018-09-10T03:28:56.414Z,3.90
2018-09-10T03:29:31.738Z,4.30
2018-09-10T03:30:07.165Z,4.60
2018-09-10T03:30:42.586Z,4.40
2018-09-10T03:31:18.026Z,4.30
2018-09-10T03:31:53.482Z,4.30
2018-09-10T03:32:29.197Z,4.40
2018-09-10T03:33:04.837Z,4.30
2018-09-10T03:33:40.127Z,4.60
2018-09-10T03:34:15.623Z,4.70
2018-09-10T03:34:50.922Z,4.10
2018-09-10T03:35:26.347Z,4.40
2018-09-10T03:36:01.563Z,4.10
2018-09-10T03:36:36.769Z,3.90
2018-09-10T03:37:12.159Z,4.50
2018-09-10T03:37:47.794Z,4.40
2018-09-10T03:38:22.995Z,4.40
2018-09-10T03:38:58.527Z,4.40
2018-09-10T03:39:33.730Z,4.60
2018-09-10T03:40:09.403Z,5.00
2018-09-10T03:40:44.912Z,5.10
2018-09-10T03:41:20.035Z,4.70
2018-09-10T03:41:55.531Z,4.90
2018-09-10T03:42:30.754Z,4.70
2018-09-10T03:43:06.154Z,4.80
2018-09-10T03:43:41.226Z,5.00
2018-09-10T03:44:16.450Z,4.60
2018-09-10T03:44:51.827Z,4.50
2018-09-10T03:45:27.043Z,4.70
2018-09-10T03:46:02.266Z,4.70
2018-09-10T03:46:37.773Z,4.40
2018-09-10T03:47:13.090Z,4.50
2018-09-10T03:47:48.519Z,4.50
2018-09-10T03:48:23.639Z,4.80
2018-09-10T03:48:58.717Z,5.20
2018-09-10T03:49:34.400Z,5.00
2018-09-10T03:50:09.647Z,4.50
2018-09-10T03:50:45.073Z,5.40
2018-09-10T03:51:20.278Z,5.00
2018-09-10T03:51:55.492Z,4.50
2018-09-10T03:52:30.791Z,5.30
2018-09-10T03:53:06.120Z,5.10
2018-09-10T03:53:41.634Z,4.90
2018-09-10T03:54:17.063Z,5.20
2018-09-10T03:54:52.365Z,5.20
2018-09-10T03:55:27.818Z,4.70
2018-09-10T03:56:03.111Z,4.50
2018-09-10T03:56:38.446Z,4.60
2018-09-10T03:57:14.367Z,5.20
2018-09-10T03:57:49.514Z,5.00
2018-09-10T03:58:24.824Z,5.00
2018-09-10T03:59:00.150Z,5.30
2018-09-10T03:59:35.751Z,4.90
2018-09-10T04:00:11.094Z,4.90
2018-09-10T04:00:46.615Z,5.00
2018-09-10T04:01:22.042Z,5.10
2018-09-10T04:01:57.086Z,5.50
2018-09-10T04:02:32.315Z,5.70
2018-09-10T04:03:07.521Z,5.50
2018-09-10T04:03:42.737Z,5.90
2018-09-10T04:04:18.117Z,5.30
2018-09-10T04:04:53.576Z,5.00
2018-09-10T04:05:29.188Z,5.30
2018-09-10T04:06:04.529Z,5.60
2018-09-10T04:06:39.717Z,5.80
2018-09-10T04:07:15.330Z,5.80
2018-09-10T04:07:50.818Z,5.70
2018-09-10T04:08:26.159Z,5.70
2018-09-10T04:09:01.488Z,5.40
2018-09-10T04:09:37.223Z,5.60
2018-09-10T04:10:12.457Z,5.50
2018-09-10T04:10:48.307Z,5.50
2018-09-10T04:11:23.822Z,5.50
2018-09-10T04:11:59.296Z,5.70
2018-09-10T04:12:34.690Z,5.70
2018-09-10T04:13:10.448Z,5.80
2018-09-10T04:13:45.831Z,5.40
2018-09-10T04:14:21.068Z,6.20
2018-09-10T04:14:56.276Z,6.70
2018-09-10T04:15:31.820Z,6.10
2018-09-10T04:16:07.530Z,6.00
2018-09-10T04:16:42.992Z,6.50
2018-09-10T04:17:18.517Z,6.40
2018-09-10T04:17:53.487Z,6.40
2018-09-10T04:18:28.492Z,6.10
2018-09-10T04:19:04.026Z,6.40
2018-09-10T04:19:39.116Z,7.00
2018-09-10T04:20:14.350Z,7.10
2018-09-10T04:20:50.266Z,6.10
2018-09-10T04:21:25.794Z,5.90
2018-09-10T04:22:01.093Z,6.30
2018-09-10T04:22:36.408Z,7.00
2018-09-10T04:23:11.794Z,6.70
2018-09-10T04:23:47.033Z,6.10
2018-09-10T04:24:22.130Z,6.60
2018-09-10T04:24:57.375Z,7.10
2018-09-10T04:25:32.703Z,6.60
2018-09-10T04:26:08.091Z,5.80
2018-09-10T04:26:43.832Z,6.30
2018-09-10T04:27:18.896Z,6.50
2018-09-10T04:27:54.299Z,6.90
2018-09-10T04:28:29.751Z,6.60
2018-09-10T04:29:05.190Z,6.60
2018-09-10T04:29:40.726Z,6.50
2018-09-10T04:30:15.944Z,7.00
2018-09-10T04:30:51.249Z,7.00
2018-09-10T04:31:26.537Z,6.40
2018-09-10T04:32:02.204Z,6.70
2018-09-10T04:32:37.643Z,7.20
2018-09-10T04:33:12.916Z,7.00
2018-09-10T04:33:48.141Z,6.50
2018-09-10T04:34:23.370Z,6.70
2018-09-10T04:34:58.757Z,6.70
2018-09-10T04:35:33.887Z,7.70
2018-09-10T04:36:09.146Z,7.70
2018-09-10T04:36:44.321Z,7.40
2018-09-10T04:37:19.613Z,6.80
2018-09-10T04:37:55.399Z,6.80
2018-09-10T04:38:30.743Z,6.50
2018-09-10T04:39:06.281Z,6.60
2018-09-10T04:39:41.517Z,7.30
2018-09-10T04:40:16.856Z,7.00
2018-09-10T04:40:52.453Z,7.00
2018-09-10T04:41:27.865Z,7.90
2018-09-10T04:42:03.174Z,7.50
2018-09-10T04:42:38.454Z,7.10
2018-09-10T04:43:13.678Z,7.10
2018-09-10T04:43:49.203Z,7.40
2018-09-10T04:44:24.287Z,7.20
2018-09-10T04:44:59.530Z,7.00
2018-09-10T04:45:34.747Z,7.60
2018-09-10T04:46:10.082Z,7.20
2018-09-10T04:46:45.499Z,6.90
2018-09-10T04:47:20.950Z,7.30
2018-09-10T04:47:56.171Z,7.30
2018-09-10T04:48:31.639Z,7.30
2018-09-10T04:49:07.091Z,7.50
2018-09-10T04:49:42.400Z,7.00
2018-09-10T04:50:17.856Z,7.50
2018-09-10T04:50:53.092Z,7.50
2018-09-10T04:51:28.492Z,7.90
2018-09-10T04:52:03.893Z,7.60
2018-09-10T04:52:39.268Z,7.20
2018-09-10T04:53:14.481Z,7.60
2018-09-10T04:53:50.175Z,7.80
2018-09-10T04:54:25.725Z,7.70
2018-09-10T04:55:01.025Z,7.60
2018-09-10T04:55:36.658Z,7.80
2018-09-10T04:56:12.146Z,7.60
2018-09-10T04:56:47.810Z,8.50
2018-09-10T04:57:23.531Z,8.10
2018-09-10T04:57:58.758Z,7.70
2018-09-10T04:58:34.248Z,7.70
2018-09-10T04:59:09.515Z,7.30
2018-09-10T04:59:45.017Z,7.10
2018-09-10T05:00:20.152Z,7.20
2018-09-10T05:00:55.679Z,7.10
2018-09-10T05:01:31.093Z,7.20
2018-09-10T05:02:06.310Z,7.50
2018-09-10T05:02:41.654Z,7.20
2018-09-10T05:03:16.852Z,7.60
2018-09-10T05:03:52.073Z,7.90
2018-09-10T05:04:27.433Z,7.80
2018-09-10T05:05:02.952Z,8.30
2018-09-10T05:05:38.463Z,8.60
2018-09-10T05:06:14.007Z,8.00
2018-09-10T05:06:49.207Z,8.30
2018-09-10T05:07:24.420Z,7.70
2018-09-10T05:07:59.722Z,7.80
2018-09-10T05:08:35.039Z,8.00
2018-09-10T05:09:10.139Z,7.70
2018-09-10T05:09:45.423Z,7.50
2018-09-10T05:10:20.730Z,7.50
2018-09-10T05:10:56.075Z,7.10
2018-09-10T05:11:31.382Z,7.40
2018-09-10T05:12:06.848Z,7.50
2018-09-10T05:12:42.240Z,7.30
2018-09-10T05:13:17.653Z,7.40
2018-09-10T05:13:52.851Z,7.50
2018-09-10T05:14:28.356Z,7.80
2018-09-10T05:15:03.603Z,7.70
2018-09-10T05:15:38.732Z,8.00
2018-09-10T05:16:14.134Z,7.70
2018-09-10T05:16:49.449Z,7.90
2018-09-10T05:17:24.842Z,8.30
2018-09-10T05:18:00.396Z,7.90
2018-09-10T05:18:35.682Z,7.60
2018-09-10T05:19:11.006Z,8.10
2018-09-10T05:19:46.290Z,8.00
2018-09-10T05:20:21.759Z,7.80
2018-09-10T05:20:56.981Z,8.70
2018-09-10T05:21:32.507Z,8.70
2018-09-10T05:22:07.893Z,7.90
2018-09-10T05:22:42.818Z,7.80
2018-09-10T05:23:18.004Z,7.60
2018-09-10T05:23:53.447Z,7.70
2018-09-10T05:24:28.754Z,8.20
2018-09-10T05:25:04.186Z,7.70
2018-09-10T05:25:39.798Z,7.60
2018-09-10T05:26:15.113Z,8.20
2018-09-10T05:26:50.195Z,8.50
2018-09-10T05:27:25.512Z,8.30
2018-09-10T05:28:01.226Z,7.50
2018-09-10T05:28:36.518Z,7.70
2018-09-10T05:29:12.112Z,7.70
2018-09-10T05:29:47.549Z,8.10
2018-09-10T05:30:22.868Z,8.50
2018-09-10T05:30:58.087Z,8.20
2018-09-10T05:31:33.377Z,7.80
2018-09-10T05:32:08.591Z,8.10
2018-09-10T05:32:44.029Z,7.80
2018-09-10T05:33:19.569Z,7.80
2018-09-10T05:33:54.880Z,8.10
2018-09-10T05:34:30.240Z,7.80
2018-09-10T05:35:05.347Z,7.70
2018-09-10T05:35:40.801Z,8.40
2018-09-10T05:36:16.207Z,8.40
2018-09-10T05:36:51.453Z,8.00
2018-09-10T05:37:27.161Z,8.30
2018-09-10T05:38:02.580Z,8.40
2018-09-10T05:38:37.985Z,8.70
2018-09-10T05:39:13.422Z,8.00
2018-09-10T05:39:49.016Z,7.60
2018-09-10T05:40:24.233Z,8.40
2018-09-10T05:40:59.407Z,8.10
2018-09-10T05:41:35.217Z,7.40
2018-09-10T05:42:10.465Z,7.90
2018-09-10T05:42:45.588Z,8.60
2018-09-10T05:43:20.789Z,8.10
2018-09-10T05:43:56.097Z,8.10
2018-09-10T05:44:31.499Z,8.20
2018-09-10T05:45:06.968Z,8.10
2018-09-10T05:45:42.770Z,8.00
2018-09-10T05:46:18.402Z,7.60
2018-09-10T05:46:54.047Z,7.80
2018-09-10T05:47:29.359Z,8.30
2018-09-10T05:48:04.564Z,8.40
2018-09-10T05:48:40.307Z,8.20
2018-09-10T05:49:15.501Z,8.40
2018-09-10T05:49:50.877Z,8.30
2018-09-10T05:50:26.260Z,8.00
2018-09-10T05:51:01.526Z,8.20
2018-09-10T05:51:36.804Z,8.00
2018-09-10T05:52:12.301Z,8.50
2018-09-10T05:52:47.718Z,9.00
2018-09-10T05:53:23.092Z,8.90
2018-09-10T05:53:58.468Z,8.60
2018-09-10T05:54:34.028Z,8.00
2018-09-10T05:55:09.528Z,7.80
2018-09-10T05:55:45.050Z,8.70
2018-09-10T05:56:20.267Z,8.60
2018-09-10T05:56:55.684Z,7.90
2018-09-10T05:57:30.926Z,8.00
2018-09-10T05:58:06.265Z,8.90
2018-09-10T05:58:41.751Z,9.30
2018-09-10T05:59:17.297Z,8.90
2018-09-10T05:59:52.780Z,9.10
2018-09-10T06:00:28.245Z,9.60
2018-09-10T06:01:03.645Z,9.70
2018-09-10T06:01:39.145Z,8.80
2018-09-10T06:02:14.758Z,8.50
2018-09-10T06:02:50.291Z,9.20
2018-09-10T06:03:25.474Z,9.20
2018-09-10T06:04:00.581Z,8.30
2018-09-10T06:04:35.806Z,8.60
2018-09-10T06:05:11.156Z,9.20
2018-09-10T06:05:46.559Z,8.80
2018-09-10T06:06:21.876Z,8.60
2018-09-10T06:06:57.082Z,7.90
2018-09-10T06:07:32.200Z,8.50
2018-09-10T06:08:07.544Z,8.90
2018-09-10T06:08:42.790Z,8.70
2018-09-10T06:09:18.365Z,9.40
2018-09-10T06:09:53.607Z,9.10
2018-09-10T06:10:28.840Z,8.20
2018-09-10T06:11:04.032Z,9.60
2018-09-10T06:11:39.822Z,9.80
2018-09-10T06:12:15.257Z,9.10
2018-09-10T06:12:50.666Z,9.10
2018-09-10T06:13:26.040Z,9.00
2018-09-10T06:14:01.575Z,8.30
2018-09-10T06:14:36.917Z,8.50
2018-09-10T06:15:12.335Z,8.90
2018-09-10T06:15:47.662Z,8.80
2018-09-10T06:16:22.957Z,9.40
2018-09-10T06:16:58.216Z,9.30
2018-09-10T06:17:33.330Z,8.80
2018-09-10T06:18:08.647Z,8.90
2018-09-10T06:18:43.804Z,9.80
2018-09-10T06:19:19.011Z,9.90
2018-09-10T06:19:54.106Z,8.70
2018-09-10T06:20:29.627Z,8.50
2018-09-10T06:21:04.918Z,9.10
2018-09-10T06:21:40.138Z,9.60
2018-09-10T06:22:15.474Z,9.80
2018-09-10T06:22:50.997Z,8.50
2018-09-10T06:23:26.408Z,8.70
2018-09-10T06:24:01.854Z,9.60
2018-09-10T06:24:37.144Z,9.50
2018-09-10T06:25:12.688Z,10.50
2018-09-10T06:25:48.249Z,9.70
2018-09-10T06:26:23.588Z,9.30
2018-09-10T06:26:59.155Z,9.50
2018-09-10T06:27:34.538Z,9.20
2018-09-10T06:28:09.885Z,8.50
2018-09-10T06:28:45.719Z,8.30
2018-09-10T06:29:21.410Z,9.10
2018-09-10T06:29:56.928Z,9.10
2018-09-10T06:30:32.125Z,9.50
2018-09-10T06:31:08.602Z,8.40
2018-09-10T06:31:44.109Z,9.10
2018-09-10T06:32:19.328Z,10.10
2018-09-10T06:32:54.539Z,10.20
2018-09-10T06:33:29.758Z,10.10
2018-09-10T06:34:04.999Z,10.10
2018-09-10T06:34:40.214Z,9.50
2018-09-10T06:35:16.024Z,8.50
2018-09-10T06:35:51.441Z,9.10
2018-09-10T06:36:26.868Z,9.70
2018-09-10T06:37:02.269Z,9.40
2018-09-10T06:37:37.610Z,9.70
2018-09-10T06:38:13.023Z,9.90
2018-09-10T06:38:48.119Z,9.70
2018-09-10T06:39:24.509Z,9.80
2018-09-10T06:39:59.809Z,10.60
2018-09-10T06:40:35.529Z,9.50
2018-09-10T06:41:10.751Z,9.50
2018-09-10T06:41:46.274Z,10.00
2018-09-10T06:42:21.943Z,10.40
2018-09-10T06:42:57.506Z,9.40
2018-09-10T06:43:32.844Z,9.70
2018-09-10T06:44:08.074Z,10.70
2018-09-10T06:44:43.301Z,10.80
2018-09-10T06:45:18.968Z,10.00
2018-09-10T06:45:54.401Z,9.50
2018-09-10T06:46:29.818Z,11.00
2018-09-10T06:47:06.185Z,10.10
2018-09-10T06:47:41.622Z,9.50
2018-09-10T06:48:16.864Z,9.60
2018-09-10T06:48:52.334Z,9.60
2018-09-10T06:49:27.917Z,9.80
2018-09-10T06:50:03.688Z,9.80
2018-09-10T06:50:39.104Z,10.00
2018-09-10T06:51:15.130Z,9.80
2018-09-10T06:51:50.538Z,9.20
2018-09-10T06:52:25.981Z,10.00
2018-09-10T06:53:01.271Z,10.30
2018-09-10T06:53:36.605Z,11.00
2018-09-10T06:54:11.925Z,11.00
2018-09-10T06:54:47.645Z,10.80
2018-09-10T06:55:23.138Z,10.10
2018-09-10T06:55:58.297Z,10.10
2018-09-10T06:56:33.692Z,10.60
2018-09-10T06:57:09.365Z,10.20
2018-09-10T06:57:45.191Z,9.80
2018-09-10T06:58:20.853Z,10.10
2018-09-10T06:58:56.254Z,10.50
2018-09-10T06:59:31.614Z,10.30
2018-09-10T07:00:07.276Z,10.10
2018-09-10T07:00:42.691Z,10.70
2018-09-10T07:01:18.149Z,10.70
2018-09-10T07:01:53.489Z,10.50
2018-09-10T07:02:28.956Z,10.70
2018-09-10T07:03:04.158Z,11.00
2018-09-10T07:03:39.361Z,10.50
2018-09-10T07:04:14.698Z,10.00
2018-09-10T07:04:50.503Z,10.30
2018-09-10T07:05:25.856Z,9.90
2018-09-10T07:06:01.326Z,10.80
2018-09-10T07:06:36.691Z,10.30
2018-09-10T07:07:12.232Z,10.70
2018-09-10T07:07:47.562Z,10.90
2018-09-10T07:08:22.965Z,10.30
2018-09-10T07:08:58.205Z,11.30
2018-09-10T07:09:33.495Z,10.80
2018-09-10T07:10:08.835Z,10.10
2018-09-10T07:10:44.039Z,10.00
2018-09-10T07:11:19.245Z,10.70
2018-09-10T07:11:54.631Z,10.90
2018-09-10T07:12:30.298Z,10.30
2018-09-10T07:13:05.735Z,10.50
2018-09-10T07:13:41.156Z,10.70
2018-09-10T07:14:16.488Z,10.80
2018-09-10T07:14:51.973Z,10.50
2018-09-10T07:15:27.652Z,10.90
2018-09-10T07:16:04.179Z,11.00
2018-09-10T07:16:39.596Z,11.20
2018-09-10T07:17:14.836Z,11.20
2018-09-10T07:17:50.047Z,11.60
2018-09-10T07:18:25.311Z,11.30
2018-09-10T07:19:00.577Z,11.80
2018-09-10T07:19:36.004Z,11.60
2018-09-10T07:20:11.318Z,11.00
2018-09-10T07:20:46.847Z,10.30
2018-09-10T07:21:22.045Z,10.50
2018-09-10T07:21:57.315Z,11.00
2018-09-10T07:22:32.649Z,11.90
2018-09-10T07:23:08.100Z,11.80
2018-09-10T07:23:43.609Z,11.30
2018-09-10T07:24:18.831Z,11.10
2018-09-10T07:24:54.375Z,11.10
2018-09-10T07:25:29.810Z,10.40
2018-09-10T07:26:04.914Z,10.20
2018-09-10T07:26:40.937Z,10.80
2018-09-10T07:27:16.147Z,10.70
2018-09-10T07:27:51.520Z,10.50
2018-09-10T07:28:27.137Z,10.80
2018-09-10T07:29:02.475Z,11.10
2018-09-10T07:29:37.798Z,10.90
2018-09-10T07:30:13.127Z,10.70
2018-09-10T07:30:48.535Z,10.70
2018-09-10T07:31:23.764Z,10.50
2018-09-10T07:31:58.997Z,10.30
2018-09-10T07:32:34.261Z,10.30
2018-09-10T07:33:09.680Z,10.10
2018-09-10T07:33:45.202Z,10.30
2018-09-10T07:34:20.504Z,10.90
2018-09-10T07:34:55.841Z,10.10
2018-09-10T07:35:31.328Z,10.70
2018-09-10T07:36:06.646Z,10.40
2018-09-10T07:36:42.418Z,9.90
2018-09-10T07:37:17.670Z,10.70
2018-09-10T07:37:52.996Z,10.40
2018-09-10T07:38:28.390Z,9.60
2018-09-10T07:39:03.891Z,9.20
2018-09-10T07:39:39.117Z,10.80
2018-09-10T07:40:14.626Z,10.50
2018-09-10T07:40:49.971Z,10.10
2018-09-10T07:41:25.414Z,9.70
2018-09-10T07:42:01.089Z,10.00
2018-09-10T07:42:36.409Z,10.50
2018-09-10T07:43:11.722Z,9.60
2018-09-10T07:43:47.099Z,9.80
2018-09-10T07:44:22.967Z,10.20
2018-09-10T07:44:58.547Z,10.10
2018-09-10T07:45:33.981Z,10.10
2018-09-10T07:46:09.382Z,9.40
2018-09-10T07:46:44.544Z,9.80
2018-09-10T07:47:19.953Z,10.70
2018-09-10T07:47:55.217Z,10.70
2018-09-10T07:48:30.715Z,9.90
2018-09-10T07:49:06.087Z,10.00